createdAt,value
2022-11-23T00:00:34.993Z,94027.34
2022-11-23T00:03:01.684Z,94027.72
2022-11-23T00:05:29.208Z,94026.25
2022-11-23T00:07:55.809Z,94026.25
2022-11-23T00:10:22.830Z,94020.28
2022-11-23T00:12:49.492Z,94020.31
2022-11-23T00:15:16.175Z,94018.84
2022-11-23T00:17:42.630Z,94021.81
2022-11-23T00:20:09.667Z,94029.97
2022-11-23T00:22:36.179Z,94024.00
2022-11-23T00:25:02.756Z,94018.03
2022-11-23T00:27:29.234Z,94021.41
2022-11-23T00:29:55.913Z,94026.25
2022-11-23T00:32:22.546Z,94017.28
2022-11-23T00:34:49.061Z,94013.94
2022-11-23T00:37:15.624Z,94011.34
2022-11-23T00:39:42.137Z,94006.09
2022-11-23T00:42:08.638Z,93990.03
2022-11-23T00:44:35.237Z,94004.19
2022-11-23T00:47:01.768Z,94004.56
2022-11-23T00:49:28.439Z,94001.19
2022-11-23T00:51:55.221Z,94003.00
2022-11-23T00:54:21.747Z,93994.84
2022-11-23T00:56:48.245Z,94000.03
2022-11-23T00:59:14.796Z,93998.13
2022-11-23T01:01:41.481Z,94003.66
2022-11-23T01:04:08.865Z,94005.88
2022-11-23T01:06:40.262Z,93999.13
2022-11-23T01:09:11.948Z,93983.47
2022-11-23T01:11:38.414Z,93995.41
2022-11-23T01:14:05.233Z,93990.19
2022-11-23T01:16:34.386Z,93995.41
2022-11-23T01:19:03.602Z,93993.19
2022-11-23T01:21:31.160Z,93996.97
2022-11-23T01:23:57.863Z,93991.75
2022-11-23T01:26:25.181Z,93994.22
2022-11-23T01:28:52.213Z,93997.44
2022-11-23T01:31:21.525Z,94006.25
2022-11-23T01:33:54.685Z,94014.31
2022-11-23T01:36:23.718Z,94001.16
2022-11-23T01:38:50.708Z,94002.19
2022-11-23T01:41:20.272Z,94005.97
2022-11-23T01:43:47.589Z,94011.09
2022-11-23T01:46:14.229Z,94012.63
2022-11-23T01:48:53.211Z,94009.19
2022-11-23T01:51:25.832Z,94011.03
2022-11-23T01:53:57.681Z,94008.81
2022-11-23T01:56:29.129Z,94010.00
2022-11-23T01:58:59.622Z,94008.88
2022-11-23T02:01:26.256Z,94008.06
2022-11-23T02:03:55.982Z,94002.00
2022-11-23T02:06:23.558Z,94016.34
2022-11-23T02:08:51.059Z,94012.16
2022-11-23T02:11:17.660Z,94013.88
2022-11-23T02:13:47.780Z,94005.94
2022-11-23T02:16:14.578Z,94011.72
2022-11-23T02:18:48.378Z,93996.91
2022-11-23T02:21:15.171Z,93992.59
2022-11-23T02:23:44.680Z,94012.91
2022-11-23T02:26:26.682Z,94011.25
2022-11-23T02:29:02.432Z,94004.91
2022-11-23T02:34:14.140Z,94003.28
2022-11-23T02:36:45.614Z,94006.38
2022-11-23T02:39:36.925Z,94000.13
2022-11-23T02:42:05.014Z,94002.78
2022-11-23T02:44:41.534Z,94005.06
2022-11-23T02:47:10.284Z,94009.53
2022-11-23T02:49:37.069Z,93998.53
2022-11-23T02:52:04.341Z,93997.75
2022-11-23T02:54:30.870Z,94001.13
2022-11-23T02:56:57.448Z,94002.16
2022-11-23T02:59:24.014Z,93996.28
2022-11-23T03:01:50.536Z,93988.16
2022-11-23T03:04:17.001Z,93989.38
2022-11-23T03:06:43.532Z,93984.59
2022-11-23T03:09:11.187Z,93982.69
2022-11-23T03:11:37.916Z,93971.44
2022-11-23T03:14:04.708Z,93975.59
2022-11-23T03:16:31.219Z,93975.69
2022-11-23T03:18:57.733Z,93976.41
2022-11-23T03:21:24.208Z,93980.47
2022-11-23T03:23:51.020Z,93979.44
2022-11-23T03:26:17.599Z,93980.63
2022-11-23T03:28:44.341Z,93968.47
2022-11-23T03:31:11.521Z,93973.66
2022-11-23T03:33:38.579Z,93964.69
2022-11-23T03:36:05.286Z,93954.34
2022-11-23T03:38:32.005Z,93960.34
2022-11-23T03:40:58.493Z,93945.44
2022-11-23T03:43:25.406Z,93935.00
2022-11-23T03:45:52.280Z,93958.84
2022-11-23T03:48:18.911Z,93953.31
2022-11-23T03:50:45.737Z,93940.31
2022-11-23T03:53:13.010Z,93952.69
2022-11-23T03:55:39.664Z,93946.34
2022-11-23T03:58:06.383Z,93943.03
2022-11-23T04:00:34.503Z,93924.38
2022-11-23T04:03:01.068Z,93938.94
2022-11-23T04:05:27.989Z,93939.69
2022-11-23T04:07:54.668Z,93918.06
2022-11-23T04:10:21.319Z,93932.25
2022-11-23T04:12:51.989Z,93926.28
2022-11-23T04:15:19.250Z,93935.22
2022-11-23T04:17:46.243Z,93934.47
2022-11-23T04:20:13.581Z,93918.06
2022-11-23T04:22:40.156Z,93920.31
2022-11-23T04:25:07.235Z,93909.13
2022-11-23T04:27:33.886Z,93903.91
2022-11-23T04:30:00.417Z,93911.38
2022-11-23T04:32:26.981Z,93922.84
2022-11-23T04:34:53.476Z,93919.47
2022-11-23T04:37:20.280Z,93915.75
2022-11-23T04:39:46.853Z,93920.63
2022-11-23T04:42:14.256Z,93922.50
2022-11-23T04:44:41.026Z,93917.56
2022-11-23T04:47:07.544Z,93916.50
2022-11-23T04:49:34.521Z,93906.84
2022-11-23T04:52:01.252Z,93906.09
2022-11-23T04:54:27.737Z,93906.06
2022-11-23T04:56:54.345Z,93903.16
2022-11-23T04:59:22.316Z,93905.41
2022-11-23T05:01:49.717Z,93903.16
2022-11-23T05:04:18.080Z,93905.03
2022-11-23T05:06:45.318Z,93912.09
2022-11-23T05:09:12.807Z,93912.09
2022-11-23T05:11:39.308Z,93912.84
2022-11-23T05:14:05.861Z,93919.94
2022-11-23T05:16:32.589Z,93914.38
2022-11-23T05:18:59.231Z,93924.81
2022-11-23T05:21:25.989Z,93928.53
2022-11-23T05:23:52.520Z,93921.06
2022-11-23T05:26:19.053Z,93926.25
2022-11-23T05:28:45.652Z,93923.66
2022-11-23T05:31:12.396Z,93926.25
2022-11-23T05:33:39.436Z,93929.59
2022-11-23T05:36:06.732Z,93928.50
2022-11-23T05:38:33.296Z,93926.28
2022-11-23T05:40:59.794Z,93926.28
2022-11-23T05:43:26.369Z,93924.81
2022-11-23T05:45:52.924Z,93930.78
2022-11-23T05:48:19.403Z,93935.97
2022-11-23T05:50:46.007Z,93933.00
2022-11-23T05:53:12.566Z,93942.72
2022-11-23T05:55:39.140Z,93933.00
2022-11-23T05:58:05.775Z,93932.63
2022-11-23T06:00:32.267Z,93947.53
2022-11-23T06:03:02.803Z,93944.22
2022-11-23T06:05:29.947Z,93939.72
2022-11-23T06:07:56.773Z,93945.66
2022-11-23T06:10:23.473Z,93953.50
2022-11-23T06:12:53.012Z,93954.22
2022-11-23T06:15:19.616Z,93959.81
2022-11-23T06:17:46.105Z,93937.03
2022-11-23T06:20:12.802Z,93945.59
2022-11-23T06:22:39.344Z,93944.16
2022-11-23T06:25:06.358Z,93950.16
2022-11-23T06:27:32.948Z,93945.72
2022-11-23T06:29:59.470Z,93943.41
2022-11-23T06:32:26.016Z,93940.06
2022-11-23T06:34:54.714Z,93941.19
2022-11-23T06:37:24.542Z,93940.81
2022-11-23T06:39:51.014Z,93945.69
2022-11-23T06:42:37.803Z,93941.19
2022-11-23T06:45:05.045Z,93943.41
2022-11-23T06:47:31.569Z,93951.97
2022-11-23T06:49:58.504Z,93949.78
2022-11-23T06:52:25.050Z,93949.41
2022-11-23T06:54:51.795Z,93956.50
2022-11-23T06:57:18.268Z,93955.00
2022-11-23T06:59:45.709Z,93957.63
2022-11-23T07:02:12.985Z,93964.31
2022-11-23T07:04:39.500Z,93966.56
2022-11-23T07:07:07.961Z,93963.59
2022-11-23T07:09:35.138Z,93965.06
2022-11-23T07:12:01.776Z,93966.56
2022-11-23T07:14:28.321Z,93965.50
2022-11-23T07:16:54.853Z,93967.34
2022-11-23T07:19:21.336Z,93974.81
2022-11-23T07:21:47.803Z,93979.28
2022-11-23T07:24:14.273Z,93973.69
2022-11-23T07:26:40.722Z,93971.78
2022-11-23T07:29:07.230Z,93971.34
2022-11-23T07:31:33.789Z,93974.34
2022-11-23T07:34:00.277Z,93976.25
2022-11-23T07:36:26.888Z,93975.50
2022-11-23T07:38:53.381Z,93976.31
2022-11-23T07:41:19.868Z,93979.22
2022-11-23T07:43:46.418Z,93978.16
2022-11-23T07:46:12.901Z,93967.31
2022-11-23T07:48:39.426Z,93956.84
2022-11-23T07:51:05.943Z,93975.47
2022-11-23T07:53:32.434Z,93973.19
2022-11-23T07:55:58.985Z,93974.41
2022-11-23T07:58:25.764Z,93974.78
2022-11-23T08:00:52.769Z,93971.81
2022-11-23T08:03:28.561Z,93984.47
2022-11-23T08:05:56.329Z,93976.25
2022-11-23T08:08:22.871Z,93972.53
2022-11-23T08:10:53.457Z,93975.88
2022-11-23T08:13:20.990Z,93978.50
2022-11-23T08:15:53.362Z,93964.66
2022-11-23T08:18:20.878Z,93966.56
2022-11-23T08:20:47.483Z,93972.53
2022-11-23T08:23:14.041Z,93976.97
2022-11-23T08:25:40.748Z,93976.63
2022-11-23T08:28:07.274Z,93980.72
2022-11-23T08:30:34.454Z,93974.75
2022-11-23T08:33:06.083Z,93983.34
2022-11-23T08:35:37.127Z,93987.44
2022-11-23T08:38:05.005Z,93987.44
2022-11-23T08:40:32.213Z,93997.91
2022-11-23T08:42:58.903Z,93995.72
2022-11-23T08:45:26.364Z,94003.91
2022-11-23T08:47:54.151Z,93998.69
2022-11-23T08:50:21.005Z,94003.16
2022-11-23T08:52:47.888Z,94000.19
2022-11-23T08:55:14.595Z,93999.81
2022-11-23T08:57:41.124Z,94008.00
2022-11-23T09:00:08.475Z,94002.06
2022-11-23T09:02:35.029Z,94002.78
2022-11-23T09:05:01.581Z,94002.44
2022-11-23T09:07:28.222Z,94001.28
2022-11-23T09:09:54.955Z,93994.19
2022-11-23T09:12:21.446Z,94000.19
2022-11-23T09:14:47.946Z,93997.19
2022-11-23T09:17:14.515Z,93994.94
2022-11-23T09:19:40.979Z,93991.97
2022-11-23T09:22:07.454Z,94003.94
2022-11-23T09:24:34.357Z,94000.16
2022-11-23T09:27:01.156Z,93992.69
2022-11-23T09:29:28.486Z,93996.06
2022-11-23T09:31:55.202Z,93999.03
2022-11-23T09:34:21.792Z,94001.56
2022-11-23T09:36:48.469Z,94003.44
2022-11-23T09:39:15.038Z,94005.94
2022-11-23T09:42:02.612Z,94016.41
2022-11-23T09:45:06.839Z,94011.19
2022-11-23T09:47:48.757Z,94013.28
2022-11-23T09:50:33.990Z,94008.38
2022-11-23T09:53:09.545Z,94005.78
2022-11-23T09:55:50.582Z,93994.75
2022-11-23T09:58:20.040Z,94016.41
2022-11-23T10:01:11.369Z,94003.34
2022-11-23T10:03:45.392Z,94008.16
2022-11-23T10:06:22.744Z,94004.31
2022-11-23T10:09:24.297Z,94002.97
2022-11-23T10:12:28.537Z,94001.09
2022-11-23T10:15:09.917Z,93993.34
2022-11-23T10:17:58.504Z,93991.78
2022-11-23T10:20:42.088Z,93984.28
2022-11-23T10:23:15.076Z,93996.66
2022-11-23T10:25:50.849Z,93980.91
2022-11-23T10:28:21.911Z,93979.94
2022-11-23T10:31:00.835Z,93989.88
2022-11-23T10:33:36.865Z,93981.09
2022-11-23T10:36:03.748Z,93975.22
2022-11-23T10:38:30.280Z,93983.09
2022-11-23T10:41:10.154Z,93977.78
2022-11-23T10:43:45.536Z,93973.47
2022-11-23T10:46:31.107Z,93973.53
2022-11-23T10:49:08.869Z,93962.97
2022-11-23T10:51:35.450Z,93959.44
2022-11-23T10:54:18.103Z,93969.03
2022-11-23T10:56:53.342Z,93976.69
2022-11-23T10:59:33.093Z,93968.84
2022-11-23T11:02:02.489Z,93967.88
2022-11-23T11:04:29.271Z,93952.72
2022-11-23T11:07:31.643Z,93967.59
2022-11-23T11:10:03.227Z,93968.41
2022-11-23T11:12:34.111Z,93962.84
2022-11-23T11:15:11.794Z,93961.09
2022-11-23T11:17:41.021Z,93960.09
2022-11-23T11:20:29.290Z,93961.94
2022-11-23T11:22:58.406Z,93965.56
2022-11-23T11:25:31.129Z,93961.41
2022-11-23T11:27:59.260Z,93953.25
2022-11-23T11:30:32.154Z,93956.44
2022-11-23T11:33:05.240Z,93943.75
2022-11-23T11:35:39.845Z,93938.84
2022-11-23T11:38:15.395Z,93939.78
2022-11-23T11:40:47.589Z,93932.75
2022-11-23T11:43:34.765Z,93936.88
2022-11-23T11:49:06.545Z,93929.00
2022-11-23T11:51:45.804Z,93937.97
2022-11-23T11:54:25.591Z,93927.88
2022-11-23T11:56:55.878Z,93934.94
2022-11-23T11:59:43.091Z,93925.72
2022-11-23T12:02:15.673Z,93929.91
2022-11-23T12:04:54.068Z,93928.38
2022-11-23T12:07:46.230Z,93925.38
2022-11-23T12:10:28.552Z,93925.94
2022-11-23T12:12:56.681Z,93918.47
2022-11-23T12:15:48.936Z,93919.03
2022-11-23T12:18:30.232Z,93919.53
2022-11-23T12:21:20.241Z,93923.56
2022-11-23T12:24:18.985Z,93930.81
2022-11-23T12:26:57.433Z,93917.16
2022-11-23T12:29:56.400Z,93904.00
2022-11-23T12:32:52.338Z,93910.31
2022-11-23T12:35:57.318Z,93898.03
2022-11-23T12:38:31.779Z,93900.97
2022-11-23T12:41:16.589Z,93903.00
2022-11-23T12:44:05.398Z,93897.03
2022-11-23T12:46:56.870Z,93891.06
2022-11-23T12:49:44.496Z,93901.34
2022-11-23T12:52:29.962Z,93893.75
2022-11-23T12:55:06.742Z,93901.13
2022-11-23T12:57:42.952Z,93887.97
2022-11-23T13:00:21.268Z,93903.56
2022-11-23T13:02:50.588Z,93898.69
2022-11-23T13:05:41.976Z,93898.19
2022-11-23T13:08:08.437Z,93898.53
2022-11-23T13:11:00.016Z,93893.53
2022-11-23T13:13:35.945Z,93897.53
2022-11-23T13:16:21.704Z,93891.50
2022-11-23T13:19:12.479Z,93895.38
2022-11-23T13:21:42.326Z,93904.88
2022-11-23T13:25:05.689Z,93898.00
2022-11-23T13:27:43.183Z,93894.75
2022-11-23T13:30:23.420Z,93893.22
2022-11-23T13:32:56.033Z,93891.69
2022-11-23T13:35:22.524Z,93893.94
2022-11-23T13:37:58.012Z,93887.34
2022-11-23T13:40:35.584Z,93877.84
2022-11-23T13:43:05.134Z,93872.25
2022-11-23T13:45:36.880Z,93871.69
2022-11-23T13:48:09.487Z,93867.50
2022-11-23T13:50:38.523Z,93874.25
2022-11-23T13:53:22.483Z,93883.31
2022-11-23T13:55:51.941Z,93873.97
2022-11-23T13:58:21.785Z,93882.50
2022-11-23T14:00:49.755Z,93870.78
2022-11-23T14:03:44.249Z,93874.94
2022-11-23T14:06:48.173Z,93871.63
2022-11-23T14:09:25.813Z,93876.00
2022-11-23T14:12:23.043Z,93869.59
2022-11-23T14:14:53.065Z,93868.84
2022-11-23T14:17:38.784Z,93871.88
2022-11-23T14:20:35.836Z,93867.97
2022-11-23T14:23:31.956Z,93873.59
2022-11-23T14:26:27.174Z,93871.41
2022-11-23T14:29:11.998Z,93880.84
2022-11-23T14:31:56.964Z,93886.59
2022-11-23T14:34:59.137Z,93895.63
2022-11-23T14:37:41.238Z,93899.47
2022-11-23T14:40:16.940Z,93899.59
2022-11-23T14:42:51.172Z,93886.28
2022-11-23T14:45:21.492Z,93898.06
2022-11-23T14:47:48.356Z,93905.59
2022-11-23T14:50:25.459Z,93904.84
2022-11-23T14:52:54.298Z,93883.78
2022-11-23T14:55:26.561Z,93904.41
2022-11-23T14:57:58.322Z,93906.50
2022-11-23T15:00:29.876Z,93913.28
2022-11-23T15:03:07.250Z,93909.53
2022-11-23T15:05:46.292Z,93913.09
2022-11-23T15:08:16.277Z,93915.44
2022-11-23T15:11:00.369Z,93930.63
2022-11-23T15:13:33.202Z,93930.69
2022-11-23T15:16:04.022Z,93915.84
2022-11-23T15:18:39.015Z,93934.88
2022-11-23T15:21:16.600Z,93931.06
2022-11-23T15:23:45.780Z,93939.78
2022-11-23T15:26:48.111Z,93932.91
2022-11-23T15:29:35.514Z,93951.59
2022-11-23T15:32:29.087Z,93961.31
2022-11-23T15:34:53.296Z,93952.38
2022-11-23T15:37:20.355Z,93955.50
2022-11-23T15:39:47.832Z,93957.06
2022-11-23T15:42:18.387Z,93962.22
2022-11-23T15:44:50.554Z,93977.06
2022-11-23T15:47:28.021Z,93968.59
2022-11-23T15:50:08.119Z,93982.31
2022-11-23T15:52:37.254Z,94016.38
2022-11-23T15:55:13.860Z,94025.06
2022-11-23T15:57:41.521Z,94028.44
2022-11-23T16:00:10.322Z,94030.38
2022-11-23T16:02:37.135Z,94041.22
2022-11-23T16:05:24.002Z,94044.78
2022-11-23T16:07:53.722Z,94049.25
2022-11-23T16:10:23.458Z,94059.38
2022-11-23T16:12:58.129Z,94062.06
2022-11-23T16:15:44.473Z,94070.22
2022-11-23T16:18:16.995Z,94074.72
2022-11-23T16:20:45.425Z,94077.72
2022-11-23T16:23:20.075Z,94085.91
2022-11-23T16:25:58.318Z,94097.91
2022-11-23T16:28:32.518Z,94104.59
2022-11-23T16:30:59.958Z,94103.16
2022-11-23T16:33:26.823Z,94100.16
2022-11-23T16:35:53.740Z,94097.19
2022-11-23T16:38:20.843Z,94101.72
2022-11-23T16:40:50.447Z,94114.41
2022-11-23T16:43:18.672Z,94093.47
2022-11-23T16:45:48.277Z,94116.25
2022-11-23T16:48:41.800Z,94120.34
2022-11-23T16:51:11.272Z,94121.13
2022-11-23T16:54:07.883Z,94135.31
2022-11-23T16:56:27.000Z,94141.28
2022-11-23T16:58:54.969Z,94145.78
2022-11-23T17:01:26.649Z,94161.81
2022-11-23T17:03:53.985Z,94154.00
2022-11-23T17:06:23.704Z,94161.06
2022-11-23T17:08:59.272Z,94170.44
2022-11-23T17:11:29.909Z,94165.19
2022-11-23T17:13:56.995Z,94178.66
2022-11-23T17:16:25.681Z,94174.16
2022-11-23T17:18:52.785Z,94191.00
2022-11-23T17:21:19.481Z,94196.22
2022-11-23T17:23:47.077Z,94202.53
2022-11-23T17:26:36.479Z,94201.81
2022-11-23T17:29:06.564Z,94210.41
2022-11-23T17:31:35.552Z,94219.75
2022-11-23T17:34:05.172Z,94235.44
2022-11-23T17:36:32.046Z,94253.41
2022-11-23T17:39:02.135Z,94257.13
2022-11-23T17:41:46.579Z,94251.88
2022-11-23T17:44:34.211Z,94261.22
2022-11-23T17:47:04.553Z,94278.06
2022-11-23T17:49:37.433Z,94276.53
2022-11-23T17:52:05.400Z,94276.94
2022-11-23T17:54:47.621Z,94288.88
2022-11-23T17:57:23.163Z,94297.50
2022-11-23T17:59:50.339Z,94310.97
2022-11-23T18:02:16.914Z,94322.56
2022-11-23T18:04:43.685Z,94330.78
2022-11-23T18:07:13.201Z,94328.16
2022-11-23T18:09:40.160Z,94347.59
2022-11-23T18:12:06.938Z,94346.09
2022-11-23T18:14:33.544Z,94360.31
2022-11-23T18:17:00.024Z,94377.13
2022-11-23T18:19:27.477Z,94379.41
2022-11-23T18:21:54.051Z,94395.84
2022-11-23T18:24:20.568Z,94403.00
2022-11-23T18:26:47.267Z,94416.47
2022-11-23T18:29:17.033Z,94430.31
2022-11-23T18:31:44.123Z,94434.44
2022-11-23T18:34:11.071Z,94440.78
2022-11-23T18:36:37.683Z,94428.78
2022-11-23T18:39:04.334Z,94435.13
2022-11-23T18:41:31.056Z,94442.56
2022-11-23T18:43:57.637Z,94443.31
2022-11-23T18:46:24.517Z,94444.44
2022-11-23T18:48:51.649Z,94444.09
2022-11-23T18:51:18.696Z,94456.09
2022-11-23T18:53:47.642Z,94443.34
2022-11-23T18:56:14.408Z,94456.09
2022-11-23T18:58:51.277Z,94464.31
2022-11-23T19:01:21.566Z,94444.84
2022-11-23T19:03:50.433Z,94458.34
2022-11-23T19:06:19.040Z,94463.22
2022-11-23T19:08:48.397Z,94483.78
2022-11-23T19:11:20.508Z,94493.53
2022-11-23T19:13:49.490Z,94492.81
2022-11-23T19:16:21.263Z,94506.31
2022-11-23T19:18:48.393Z,94507.06
2022-11-23T19:21:17.199Z,94510.81
2022-11-23T19:23:44.692Z,94515.28
2022-11-23T19:26:11.219Z,94516.03
2022-11-23T19:28:38.125Z,94522.06
2022-11-23T19:31:20.108Z,94533.25
2022-11-23T19:33:48.329Z,94545.66
2022-11-23T19:36:18.429Z,94542.31
2022-11-23T19:38:45.370Z,94554.28
2022-11-23T19:41:12.426Z,94549.44
2022-11-23T19:43:38.949Z,94564.41
2022-11-23T19:46:09.298Z,94561.00
2022-11-23T19:48:36.083Z,94556.16
2022-11-23T19:51:05.321Z,94565.16
2022-11-23T19:53:34.089Z,94579.00
2022-11-23T19:56:06.207Z,94577.44
2022-11-23T19:58:34.131Z,94575.94
2022-11-23T20:01:10.225Z,94583.34
2022-11-23T20:03:38.219Z,94586.69
2022-11-23T20:06:09.931Z,94600.56
2022-11-23T20:08:37.422Z,94590.13
2022-11-23T20:11:12.924Z,94602.91
2022-11-23T20:13:39.848Z,94605.13
2022-11-23T20:16:09.461Z,94604.41
2022-11-23T20:18:36.125Z,94606.63
2022-11-23T20:21:03.198Z,94618.66
2022-11-23T20:23:29.989Z,94617.16
2022-11-23T20:25:57.492Z,94621.72
2022-11-23T20:28:25.894Z,94632.94
2022-11-23T20:30:52.544Z,94650.91
2022-11-23T20:33:19.611Z,94653.94
2022-11-23T20:35:47.866Z,94659.97
2022-11-23T20:38:17.309Z,94649.06
2022-11-23T20:40:44.037Z,94644.09
2022-11-23T20:43:10.610Z,94646.00
2022-11-23T20:45:37.220Z,94646.44
2022-11-23T20:48:03.844Z,94659.16
2022-11-23T20:50:30.402Z,94650.94
2022-11-23T20:53:03.656Z,94672.72
2022-11-23T20:55:32.149Z,94688.09
2022-11-23T20:57:58.840Z,94681.34
2022-11-23T21:00:25.453Z,94691.84
2022-11-23T21:02:53.335Z,94689.59
2022-11-23T21:05:20.334Z,94688.44
2022-11-23T21:07:47.676Z,94697.44
2022-11-23T21:10:34.324Z,94686.16
2022-11-23T21:13:20.187Z,94698.88
2022-11-23T21:15:47.322Z,94698.03
2022-11-23T21:18:14.570Z,94687.16
2022-11-23T21:20:43.332Z,94695.00
2022-11-23T21:23:10.418Z,94696.53
2022-11-23T21:25:36.933Z,94710.72
2022-11-23T21:28:03.478Z,94705.47
2022-11-23T21:30:30.829Z,94705.44
2022-11-23T21:32:57.577Z,94698.63
2022-11-23T21:35:24.560Z,94707.59
2022-11-23T21:37:51.386Z,94709.09
2022-11-23T21:40:18.018Z,94703.34
2022-11-23T21:42:44.846Z,94704.09
2022-11-23T21:45:11.713Z,94710.81
2022-11-23T21:47:38.245Z,94714.97
2022-11-23T21:50:05.074Z,94718.84
2022-11-23T21:52:31.735Z,94726.91
2022-11-23T21:54:58.231Z,94718.25
2022-11-23T21:57:24.815Z,94720.97
2022-11-23T21:59:51.340Z,94730.75
2022-11-23T22:02:18.139Z,94736.38
2022-11-23T22:04:44.716Z,94735.31
2022-11-23T22:07:12.283Z,94742.75
2022-11-23T22:09:38.905Z,94737.50
2022-11-23T22:12:06.381Z,94724.28
2022-11-23T22:14:33.197Z,94730.66
2022-11-23T22:17:00.652Z,94726.03
2022-11-23T22:19:27.377Z,94732.03
2022-11-23T22:21:54.066Z,94728.59
2022-11-23T22:24:22.611Z,94737.16
2022-11-23T22:26:49.545Z,94734.13
2022-11-23T22:29:16.573Z,94733.41
2022-11-23T22:31:43.772Z,94736.44
2022-11-23T22:34:12.814Z,94741.59
2022-11-23T22:36:39.578Z,94742.97
2022-11-23T22:39:07.749Z,94753.44
2022-11-23T22:41:37.228Z,94741.25
2022-11-23T22:44:08.995Z,94741.97
2022-11-23T22:46:36.306Z,94751.34
2022-11-23T22:49:03.113Z,94763.31
2022-11-23T22:51:29.920Z,94760.03
2022-11-23T22:53:58.525Z,94760.75
2022-11-23T22:56:25.809Z,94766.47
2022-11-23T22:58:52.762Z,94772.44
2022-11-23T23:01:22.473Z,94776.19
2022-11-23T23:03:53.362Z,94774.84
2022-11-23T23:06:23.111Z,94778.28
2022-11-23T23:08:54.181Z,94784.63
2022-11-23T23:11:21.291Z,94778.31
2022-11-23T23:13:48.176Z,94784.75
2022-11-23T23:16:14.842Z,94782.53
2022-11-23T23:18:42.069Z,94775.78
2022-11-23T23:21:16.907Z,94779.88
2022-11-23T23:23:47.900Z,94788.56
2022-11-23T23:26:17.285Z,94791.53
2022-11-23T23:28:44.112Z,94787.16
2022-11-23T23:31:12.819Z,94793.88
2022-11-23T23:33:39.670Z,94798.34
2022-11-23T23:36:11.716Z,94794.22
2022-11-23T23:38:38.634Z,94796.09
2022-11-23T23:41:05.981Z,94797.38
2022-11-23T23:43:32.766Z,94808.13
2022-11-23T23:46:03.879Z,94802.66
2022-11-23T23:48:32.599Z,94815.75
2022-11-23T23:51:04.310Z,94807.59
2022-11-23T23:53:33.424Z,94805.63
2022-11-23T23:56:02.325Z,94807.38
2022-11-23T23:58:30.158Z,94802.06
